sensor_id;sensor_type;location;lat;lon;timestamp;P1;durP1;ratioP1;P2;durP2;ratioP2
10269;SDS011;5180;50.832;5.390;2022-08-19T00:01:51;22.42;;;20.02;;
10269;SDS011;5180;50.832;5.390;2022-08-19T00:04:21;25.92;;;23.27;;
10269;SDS011;5180;50.832;5.390;2022-08-19T00:06:49;28.70;;;25.90;;
10269;SDS011;5180;50.832;5.390;2022-08-19T00:09:16;28.20;;;25.48;;
10269;SDS011;5180;50.832;5.390;2022-08-19T00:11:43;25.45;;;22.35;;
10269;SDS011;5180;50.832;5.390;2022-08-19T00:14:10;27.05;;;24.45;;
10269;SDS011;5180;50.832;5.390;2022-08-19T00:16:37;34.67;;;31.65;;
10269;SDS011;5180;50.832;5.390;2022-08-19T00:19:04;41.88;;;38.47;;
10269;SDS011;5180;50.832;5.390;2022-08-19T00:21:30;46.88;;;43.03;;
10269;SDS011;5180;50.832;5.390;2022-08-19T00:23:56;63.67;;;59.00;;
10269;SDS011;5180;50.832;5.390;2022-08-19T00:26:27;63.17;;;58.53;;
10269;SDS011;5180;50.832;5.390;2022-08-19T00:28:53;52.22;;;47.97;;
10269;SDS011;5180;50.832;5.390;2022-08-19T00:31:19;43.17;;;39.63;;
10269;SDS011;5180;50.832;5.390;2022-08-19T00:33:45;36.58;;;33.15;;
10269;SDS011;5180;50.832;5.390;2022-08-19T00:36:12;37.65;;;34.15;;
10269;SDS011;5180;50.832;5.390;2022-08-19T00:38:38;37.25;;;34.05;;
10269;SDS011;5180;50.832;5.390;2022-08-19T00:41:09;30.63;;;27.60;;
10269;SDS011;5180;50.832;5.390;2022-08-19T00:43:39;28.08;;;25.33;;
10269;SDS011;5180;50.832;5.390;2022-08-19T00:46:06;25.85;;;22.15;;
10269;SDS011;5180;50.832;5.390;2022-08-19T00:48:32;36.38;;;32.78;;
10269;SDS011;5180;50.832;5.390;2022-08-19T00:50:58;36.03;;;32.67;;
10269;SDS011;5180;50.832;5.390;2022-08-19T00:53:26;44.10;;;40.58;;
10269;SDS011;5180;50.832;5.390;2022-08-19T00:55:55;44.17;;;40.30;;
10269;SDS011;5180;50.832;5.390;2022-08-19T00:58:25;49.75;;;45.80;;
10269;SDS011;5180;50.832;5.390;2022-08-19T01:00:55;53.20;;;48.95;;
10269;SDS011;5180;50.832;5.390;2022-08-19T01:03:21;48.75;;;44.47;;
10269;SDS011;5180;50.832;5.390;2022-08-19T01:05:47;66.53;;;61.63;;
10269;SDS011;5180;50.832;5.390;2022-08-19T01:08:15;56.60;;;52.13;;
10269;SDS011;5180;50.832;5.390;2022-08-19T01:10:47;48.80;;;44.70;;
10269;SDS011;5180;50.832;5.390;2022-08-19T01:13:16;49.60;;;45.72;;
10269;SDS011;5180;50.832;5.390;2022-08-19T01:15:46;54.95;;;50.33;;
10269;SDS011;5180;50.832;5.390;2022-08-19T01:18:16;52.83;;;48.75;;
10269;SDS011;5180;50.832;5.390;2022-08-19T01:20:44;45.75;;;41.78;;
10269;SDS011;5180;50.832;5.390;2022-08-19T01:23:10;42.72;;;39.08;;
10269;SDS011;5180;50.832;5.390;2022-08-19T01:28:16;45.40;;;41.33;;
10269;SDS011;5180;50.832;5.390;2022-08-19T01:30:46;53.17;;;48.83;;
10269;SDS011;5180;50.832;5.390;2022-08-19T01:33:13;58.78;;;54.13;;
10269;SDS011;5180;50.832;5.390;2022-08-19T01:35:40;59.03;;;54.38;;
10269;SDS011;5180;50.832;5.390;2022-08-19T01:38:09;60.00;;;55.20;;
10269;SDS011;5180;50.832;5.390;2022-08-19T01:40:43;59.10;;;54.30;;
10269;SDS011;5180;50.832;5.390;2022-08-19T01:43:09;58.45;;;53.95;;
10269;SDS011;5180;50.832;5.390;2022-08-19T01:45:35;59.53;;;54.63;;
10269;SDS011;5180;50.832;5.390;2022-08-19T01:48:01;54.03;;;49.40;;
10269;SDS011;5180;50.832;5.390;2022-08-19T01:50:27;53.05;;;48.85;;
10269;SDS011;5180;50.832;5.390;2022-08-19T01:52:54;56.13;;;51.70;;
10269;SDS011;5180;50.832;5.390;2022-08-19T01:55:20;52.25;;;47.88;;
10269;SDS011;5180;50.832;5.390;2022-08-19T01:57:49;38.53;;;34.88;;
10269;SDS011;5180;50.832;5.390;2022-08-19T02:00:23;47.00;;;42.83;;
10269;SDS011;5180;50.832;5.390;2022-08-19T02:02:50;38.10;;;34.45;;
10269;SDS011;5180;50.832;5.390;2022-08-19T02:05:16;38.33;;;34.55;;
10269;SDS011;5180;50.832;5.390;2022-08-19T02:07:43;41.85;;;38.13;;
10269;SDS011;5180;50.832;5.390;2022-08-19T02:10:11;44.88;;;41.03;;
10269;SDS011;5180;50.832;5.390;2022-08-19T02:12:39;38.35;;;34.72;;
10269;SDS011;5180;50.832;5.390;2022-08-19T02:15:06;40.17;;;36.55;;
10269;SDS011;5180;50.832;5.390;2022-08-19T02:17:32;42.10;;;37.90;;
10269;SDS011;5180;50.832;5.390;2022-08-19T02:19:58;41.67;;;37.80;;
10269;SDS011;5180;50.832;5.390;2022-08-19T02:22:24;32.70;;;29.52;;
10269;SDS011;5180;50.832;5.390;2022-08-19T02:24:51;30.85;;;27.85;;
10269;SDS011;5180;50.832;5.390;2022-08-19T02:27:17;31.67;;;26.08;;
10269;SDS011;5180;50.832;5.390;2022-08-19T02:29:44;31.08;;;27.63;;
10269;SDS011;5180;50.832;5.390;2022-08-19T02:32:11;29.55;;;26.42;;
10269;SDS011;5180;50.832;5.390;2022-08-19T02:34:36;30.52;;;27.35;;
10269;SDS011;5180;50.832;5.390;2022-08-19T02:37:02;34.03;;;30.63;;
10269;SDS011;5180;50.832;5.390;2022-08-19T02:39:28;31.90;;;28.67;;
10269;SDS011;5180;50.832;5.390;2022-08-19T02:41:53;31.15;;;27.73;;
10269;SDS011;5180;50.832;5.390;2022-08-19T02:44:19;32.15;;;28.73;;
10269;SDS011;5180;50.832;5.390;2022-08-19T02:46:45;30.00;;;25.27;;
10269;SDS011;5180;50.832;5.390;2022-08-19T02:49:12;31.38;;;28.05;;
10269;SDS011;5180;50.832;5.390;2022-08-19T02:51:41;32.30;;;28.85;;
10269;SDS011;5180;50.832;5.390;2022-08-19T02:54:09;36.13;;;32.25;;
10269;SDS011;5180;50.832;5.390;2022-08-19T02:56:37;37.25;;;33.40;;
10269;SDS011;5180;50.832;5.390;2022-08-19T02:59:04;36.83;;;32.95;;
10269;SDS011;5180;50.832;5.390;2022-08-19T03:01:35;32.50;;;28.30;;
10269;SDS011;5180;50.832;5.390;2022-08-19T03:04:02;32.33;;;24.17;;
10269;SDS011;5180;50.832;5.390;2022-08-19T03:06:29;31.02;;;23.83;;
10269;SDS011;5180;50.832;5.390;2022-08-19T03:08:56;41.95;;;34.97;;
10269;SDS011;5180;50.832;5.390;2022-08-19T03:11:25;37.25;;;33.10;;
10269;SDS011;5180;50.832;5.390;2022-08-19T03:13:52;43.58;;;38.92;;
10269;SDS011;5180;50.832;5.390;2022-08-19T03:16:19;43.80;;;39.10;;
10269;SDS011;5180;50.832;5.390;2022-08-19T03:18:46;40.22;;;35.80;;
10269;SDS011;5180;50.832;5.390;2022-08-19T03:21:16;34.72;;;26.85;;
10269;SDS011;5180;50.832;5.390;2022-08-19T03:23:47;35.00;;;30.33;;
10269;SDS011;5180;50.832;5.390;2022-08-19T03:26:13;36.03;;;27.55;;
10269;SDS011;5180;50.832;5.390;2022-08-19T03:28:42;34.58;;;28.42;;
10269;SDS011;5180;50.832;5.390;2022-08-19T03:31:10;34.88;;;27.33;;
10269;SDS011;5180;50.832;5.390;2022-08-19T03:33:38;39.63;;;31.70;;
10269;SDS011;5180;50.832;5.390;2022-08-19T03:36:05;47.05;;;41.55;;
10269;SDS011;5180;50.832;5.390;2022-08-19T03:38:39;42.70;;;38.08;;
10269;SDS011;5180;50.832;5.390;2022-08-19T03:41:12;41.42;;;36.97;;
10269;SDS011;5180;50.832;5.390;2022-08-19T03:43:40;44.30;;;39.58;;
10269;SDS011;5180;50.832;5.390;2022-08-19T03:46:09;46.85;;;42.00;;
10269;SDS011;5180;50.832;5.390;2022-08-19T03:48:37;45.78;;;40.83;;
10269;SDS011;5180;50.832;5.390;2022-08-19T03:51:04;46.70;;;39.92;;
10269;SDS011;5180;50.832;5.390;2022-08-19T03:53:30;45.53;;;40.95;;
10269;SDS011;5180;50.832;5.390;2022-08-19T03:55:57;45.78;;;40.80;;
10269;SDS011;5180;50.832;5.390;2022-08-19T03:58:28;56.67;;;51.00;;
10269;SDS011;5180;50.832;5.390;2022-08-19T04:00:55;47.30;;;42.05;;
10269;SDS011;5180;50.832;5.390;2022-08-19T04:03:22;50.40;;;45.25;;
10269;SDS011;5180;50.832;5.390;2022-08-19T04:05:48;51.53;;;46.35;;
10269;SDS011;5180;50.832;5.390;2022-08-19T04:08:14;44.17;;;38.35;;
10269;SDS011;5180;50.832;5.390;2022-08-19T04:10:43;68.07;;;61.65;;
10269;SDS011;5180;50.832;5.390;2022-08-19T04:13:09;58.58;;;53.05;;
10269;SDS011;5180;50.832;5.390;2022-08-19T04:15:38;49.60;;;43.28;;
10269;SDS011;5180;50.832;5.390;2022-08-19T04:18:06;61.08;;;55.00;;
10269;SDS011;5180;50.832;5.390;2022-08-19T04:20:39;44.45;;;39.63;;
10269;SDS011;5180;50.832;5.390;2022-08-19T04:23:09;48.85;;;41.28;;
10269;SDS011;5180;50.832;5.390;2022-08-19T04:25:37;57.75;;;32.15;;
10269;SDS011;5180;50.832;5.390;2022-08-19T04:28:03;42.60;;;32.10;;
10269;SDS011;5180;50.832;5.390;2022-08-19T04:30:30;44.95;;;36.10;;
10269;SDS011;5180;50.832;5.390;2022-08-19T04:32:55;51.72;;;40.42;;
10269;SDS011;5180;50.832;5.390;2022-08-19T04:35:21;50.78;;;37.95;;
10269;SDS011;5180;50.832;5.390;2022-08-19T04:37:47;128.32;;;33.53;;
10269;SDS011;5180;50.832;5.390;2022-08-19T04:40:12;48.25;;;36.08;;
10269;SDS011;5180;50.832;5.390;2022-08-19T04:42:57;48.85;;;37.75;;
10269;SDS011;5180;50.832;5.390;2022-08-19T04:45:23;46.78;;;41.13;;
10269;SDS011;5180;50.832;5.390;2022-08-19T04:47:48;52.80;;;38.65;;
10269;SDS011;5180;50.832;5.390;2022-08-19T04:50:14;54.30;;;41.83;;
10269;SDS011;5180;50.832;5.390;2022-08-19T04:52:40;55.13;;;46.67;;
10269;SDS011;5180;50.832;5.390;2022-08-19T04:55:08;56.85;;;46.03;;
10269;SDS011;5180;50.832;5.390;2022-08-19T04:57:35;52.92;;;44.67;;
10269;SDS011;5180;50.832;5.390;2022-08-19T05:00:04;60.03;;;45.50;;
10269;SDS011;5180;50.832;5.390;2022-08-19T05:02:30;55.17;;;42.80;;
10269;SDS011;5180;50.832;5.390;2022-08-19T05:04:57;55.20;;;41.78;;
10269;SDS011;5180;50.832;5.390;2022-08-19T05:07:24;55.25;;;40.25;;
10269;SDS011;5180;50.832;5.390;2022-08-19T05:09:50;49.70;;;42.00;;
10269;SDS011;5180;50.832;5.390;2022-08-19T05:12:16;45.97;;;36.08;;
10269;SDS011;5180;50.832;5.390;2022-08-19T05:14:43;47.50;;;35.00;;
10269;SDS011;5180;50.832;5.390;2022-08-19T05:17:10;48.20;;;33.53;;
10269;SDS011;5180;50.832;5.390;2022-08-19T05:19:36;50.67;;;37.22;;
10269;SDS011;5180;50.832;5.390;2022-08-19T05:22:20;56.65;;;47.80;;
10269;SDS011;5180;50.832;5.390;2022-08-19T05:24:59;43.88;;;38.83;;
10269;SDS011;5180;50.832;5.390;2022-08-19T05:27:34;46.03;;;37.58;;
10269;SDS011;5180;50.832;5.390;2022-08-19T05:30:00;47.63;;;41.65;;
10269;SDS011;5180;50.832;5.390;2022-08-19T05:32:26;46.10;;;41.13;;
10269;SDS011;5180;50.832;5.390;2022-08-19T05:34:52;47.38;;;42.22;;
10269;SDS011;5180;50.832;5.390;2022-08-19T05:37:18;45.63;;;37.95;;
10269;SDS011;5180;50.832;5.390;2022-08-19T05:39:44;43.53;;;33.72;;
10269;SDS011;5180;50.832;5.390;2022-08-19T05:42:10;59.67;;;53.80;;
10269;SDS011;5180;50.832;5.390;2022-08-19T05:44:42;58.75;;;53.03;;
10269;SDS011;5180;50.832;5.390;2022-08-19T05:47:13;45.78;;;40.65;;
10269;SDS011;5180;50.832;5.390;2022-08-19T05:49:40;41.90;;;34.92;;
10269;SDS011;5180;50.832;5.390;2022-08-19T05:52:12;50.08;;;44.90;;
10269;SDS011;5180;50.832;5.390;2022-08-19T05:54:40;49.63;;;44.92;;
10269;SDS011;5180;50.832;5.390;2022-08-19T05:57:07;33.97;;;26.15;;
10269;SDS011;5180;50.832;5.390;2022-08-19T05:59:34;35.75;;;26.48;;
10269;SDS011;5180;50.832;5.390;2022-08-19T06:02:03;35.22;;;31.15;;
10269;SDS011;5180;50.832;5.390;2022-08-19T06:04:30;52.88;;;47.70;;
10269;SDS011;5180;50.832;5.390;2022-08-19T06:06:55;44.25;;;39.40;;
10269;SDS011;5180;50.832;5.390;2022-08-19T06:09:21;40.72;;;36.45;;
10269;SDS011;5180;50.832;5.390;2022-08-19T06:11:48;29.33;;;25.17;;
10269;SDS011;5180;50.832;5.390;2022-08-19T06:14:20;33.17;;;26.58;;
10269;SDS011;5180;50.832;5.390;2022-08-19T06:16:48;28.77;;;24.13;;
10269;SDS011;5180;50.832;5.390;2022-08-19T06:19:17;44.28;;;39.70;;
10269;SDS011;5180;50.832;5.390;2022-08-19T06:21:45;37.45;;;30.73;;
10269;SDS011;5180;50.832;5.390;2022-08-19T06:24:13;28.95;;;22.33;;
10269;SDS011;5180;50.832;5.390;2022-08-19T06:26:42;37.75;;;31.35;;
10269;SDS011;5180;50.832;5.390;2022-08-19T06:29:09;37.17;;;33.42;;
10269;SDS011;5180;50.832;5.390;2022-08-19T06:31:36;29.60;;;26.48;;
10269;SDS011;5180;50.832;5.390;2022-08-19T06:34:05;35.13;;;30.92;;
10269;SDS011;5180;50.832;5.390;2022-08-19T06:36:33;37.67;;;33.97;;
10269;SDS011;5180;50.832;5.390;2022-08-19T06:39:02;32.75;;;28.73;;
10269;SDS011;5180;50.832;5.390;2022-08-19T06:41:30;44.95;;;40.85;;
10269;SDS011;5180;50.832;5.390;2022-08-19T06:43:59;44.55;;;40.28;;
10269;SDS011;5180;50.832;5.390;2022-08-19T06:46:24;30.27;;;23.58;;
10269;SDS011;5180;50.832;5.390;2022-08-19T06:48:51;28.83;;;25.08;;
10269;SDS011;5180;50.832;5.390;2022-08-19T06:51:18;27.00;;;21.30;;
10269;SDS011;5180;50.832;5.390;2022-08-19T06:53:48;30.90;;;23.35;;
10269;SDS011;5180;50.832;5.390;2022-08-19T06:56:15;27.60;;;24.58;;
10269;SDS011;5180;50.832;5.390;2022-08-19T06:58:43;27.48;;;24.50;;
10269;SDS011;5180;50.832;5.390;2022-08-19T07:01:09;29.90;;;26.77;;
10269;SDS011;5180;50.832;5.390;2022-08-19T07:03:36;22.95;;;19.45;;
10269;SDS011;5180;50.832;5.390;2022-08-19T07:06:04;25.02;;;20.80;;
10269;SDS011;5180;50.832;5.390;2022-08-19T07:08:35;35.35;;;32.00;;
10269;SDS011;5180;50.832;5.390;2022-08-19T07:11:05;36.30;;;33.10;;
10269;SDS011;5180;50.832;5.390;2022-08-19T07:13:32;29.70;;;26.92;;
10269;SDS011;5180;50.832;5.390;2022-08-19T07:16:03;23.20;;;20.75;;
10269;SDS011;5180;50.832;5.390;2022-08-19T07:18:32;20.52;;;18.42;;
10269;SDS011;5180;50.832;5.390;2022-08-19T07:21:03;18.95;;;15.77;;
10269;SDS011;5180;50.832;5.390;2022-08-19T07:23:34;15.73;;;12.30;;
10269;SDS011;5180;50.832;5.390;2022-08-19T07:26:11;24.52;;;22.05;;
10269;SDS011;5180;50.832;5.390;2022-08-19T07:28:39;18.50;;;15.30;;
10269;SDS011;5180;50.832;5.390;2022-08-19T07:31:06;16.13;;;13.55;;
10269;SDS011;5180;50.832;5.390;2022-08-19T07:33:32;24.85;;;21.50;;
10269;SDS011;5180;50.832;5.390;2022-08-19T07:36:01;23.48;;;21.00;;
10269;SDS011;5180;50.832;5.390;2022-08-19T07:38:29;19.92;;;17.83;;
10269;SDS011;5180;50.832;5.390;2022-08-19T07:40:54;16.02;;;12.82;;
10269;SDS011;5180;50.832;5.390;2022-08-19T07:43:20;15.50;;;12.48;;
10269;SDS011;5180;50.832;5.390;2022-08-19T07:45:49;19.83;;;9.80;;
10269;SDS011;5180;50.832;5.390;2022-08-19T07:48:18;14.68;;;11.50;;
10269;SDS011;5180;50.832;5.390;2022-08-19T07:50:44;17.15;;;12.65;;
10269;SDS011;5180;50.832;5.390;2022-08-19T07:53:10;15.13;;;11.32;;
10269;SDS011;5180;50.832;5.390;2022-08-19T07:55:37;30.17;;;27.65;;
10269;SDS011;5180;50.832;5.390;2022-08-19T07:58:03;19.58;;;17.67;;
10269;SDS011;5180;50.832;5.390;2022-08-19T08:00:29;24.17;;;21.83;;
10269;SDS011;5180;50.832;5.390;2022-08-19T08:02:55;11.80;;;9.57;;
10269;SDS011;5180;50.832;5.390;2022-08-19T08:05:21;12.57;;;9.05;;
10269;SDS011;5180;50.832;5.390;2022-08-19T08:08:06;12.15;;;10.52;;
10269;SDS011;5180;50.832;5.390;2022-08-19T08:10:50;12.68;;;9.02;;
10269;SDS011;5180;50.832;5.390;2022-08-19T08:13:16;11.90;;;8.55;;
10269;SDS011;5180;50.832;5.390;2022-08-19T08:15:41;14.10;;;10.15;;
10269;SDS011;5180;50.832;5.390;2022-08-19T08:18:10;12.70;;;10.75;;
10269;SDS011;5180;50.832;5.390;2022-08-19T08:20:36;12.45;;;9.77;;
10269;SDS011;5180;50.832;5.390;2022-08-19T08:23:01;13.57;;;9.68;;
10269;SDS011;5180;50.832;5.390;2022-08-19T08:25:46;15.25;;;12.50;;
10269;SDS011;5180;50.832;5.390;2022-08-19T08:28:13;12.98;;;10.90;;
10269;SDS011;5180;50.832;5.390;2022-08-19T08:30:38;11.48;;;9.35;;
10269;SDS011;5180;50.832;5.390;2022-08-19T08:33:07;13.27;;;10.20;;
10269;SDS011;5180;50.832;5.390;2022-08-19T08:35:33;12.50;;;8.65;;
10269;SDS011;5180;50.832;5.390;2022-08-19T08:37:59;15.30;;;8.88;;
10269;SDS011;5180;50.832;5.390;2022-08-19T08:40:29;12.18;;;9.75;;
10269;SDS011;5180;50.832;5.390;2022-08-19T08:46:04;11.55;;;7.68;;
10269;SDS011;5180;50.832;5.390;2022-08-19T08:51:10;11.18;;;7.88;;
10269;SDS011;5180;50.832;5.390;2022-08-19T08:53:44;12.63;;;8.00;;
10269;SDS011;5180;50.832;5.390;2022-08-19T08:56:13;10.68;;;7.53;;
10269;SDS011;5180;50.832;5.390;2022-08-19T09:01:24;9.40;;;7.35;;
10269;SDS011;5180;50.832;5.390;2022-08-19T09:03:51;11.07;;;8.20;;
10269;SDS011;5180;50.832;5.390;2022-08-19T09:06:26;10.77;;;6.85;;
10269;SDS011;5180;50.832;5.390;2022-08-19T09:09:01;9.90;;;7.32;;
10269;SDS011;5180;50.832;5.390;2022-08-19T09:17:12;13.10;;;8.45;;
10269;SDS011;5180;50.832;5.390;2022-08-19T09:19:52;11.50;;;8.02;;
10269;SDS011;5180;50.832;5.390;2022-08-19T09:22:23;13.23;;;8.27;;
10269;SDS011;5180;50.832;5.390;2022-08-19T09:24:51;13.35;;;8.68;;
10269;SDS011;5180;50.832;5.390;2022-08-19T09:27:18;13.32;;;7.60;;
10269;SDS011;5180;50.832;5.390;2022-08-19T09:29:45;8.60;;;6.00;;
10269;SDS011;5180;50.832;5.390;2022-08-19T09:32:14;8.95;;;5.35;;
10269;SDS011;5180;50.832;5.390;2022-08-19T09:34:39;9.30;;;5.03;;
10269;SDS011;5180;50.832;5.390;2022-08-19T09:37:06;7.50;;;4.65;;
10269;SDS011;5180;50.832;5.390;2022-08-19T09:39:32;7.60;;;4.35;;
10269;SDS011;5180;50.832;5.390;2022-08-19T09:41:57;7.22;;;4.60;;
10269;SDS011;5180;50.832;5.390;2022-08-19T09:44:23;7.43;;;5.07;;
10269;SDS011;5180;50.832;5.390;2022-08-19T09:46:48;9.23;;;5.15;;
10269;SDS011;5180;50.832;5.390;2022-08-19T09:49:16;6.72;;;4.40;;
10269;SDS011;5180;50.832;5.390;2022-08-19T09:51:43;6.40;;;5.20;;
10269;SDS011;5180;50.832;5.390;2022-08-19T09:54:09;5.68;;;4.35;;
10269;SDS011;5180;50.832;5.390;2022-08-19T09:56:35;7.55;;;4.60;;
10269;SDS011;5180;50.832;5.390;2022-08-19T09:59:01;4.47;;;3.70;;
10269;SDS011;5180;50.832;5.390;2022-08-19T10:01:29;6.22;;;3.75;;
10269;SDS011;5180;50.832;5.390;2022-08-19T10:03:56;6.38;;;4.43;;
10269;SDS011;5180;50.832;5.390;2022-08-19T10:06:24;4.13;;;3.67;;
10269;SDS011;5180;50.832;5.390;2022-08-19T10:08:54;4.28;;;3.55;;
10269;SDS011;5180;50.832;5.390;2022-08-19T10:11:20;4.97;;;3.63;;
10269;SDS011;5180;50.832;5.390;2022-08-19T10:13:46;4.10;;;3.20;;
10269;SDS011;5180;50.832;5.390;2022-08-19T10:16:14;4.60;;;3.50;;
10269;SDS011;5180;50.832;5.390;2022-08-19T10:18:43;4.18;;;3.22;;
10269;SDS011;5180;50.832;5.390;2022-08-19T10:21:13;3.78;;;3.47;;
10269;SDS011;5180;50.832;5.390;2022-08-19T10:24:01;5.28;;;3.40;;
10269;SDS011;5180;50.832;5.390;2022-08-19T10:26:30;5.90;;;2.97;;
10269;SDS011;5180;50.832;5.390;2022-08-19T10:28:59;3.75;;;3.35;;
10269;SDS011;5180;50.832;5.390;2022-08-19T10:31:26;3.42;;;2.88;;
10269;SDS011;5180;50.832;5.390;2022-08-19T10:33:54;5.03;;;3.20;;
10269;SDS011;5180;50.832;5.390;2022-08-19T10:36:28;6.55;;;3.20;;
10269;SDS011;5180;50.832;5.390;2022-08-19T10:38:56;5.13;;;3.00;;
10269;SDS011;5180;50.832;5.390;2022-08-19T10:41:27;4.13;;;2.60;;
10269;SDS011;5180;50.832;5.390;2022-08-19T10:43:56;3.35;;;2.80;;
10269;SDS011;5180;50.832;5.390;2022-08-19T10:46:24;3.50;;;2.88;;
10269;SDS011;5180;50.832;5.390;2022-08-19T10:48:51;4.18;;;2.95;;
10269;SDS011;5180;50.832;5.390;2022-08-19T10:51:18;4.00;;;3.03;;
10269;SDS011;5180;50.832;5.390;2022-08-19T10:54:03;4.55;;;2.85;;
10269;SDS011;5180;50.832;5.390;2022-08-19T10:56:29;4.43;;;2.80;;
10269;SDS011;5180;50.832;5.390;2022-08-19T10:59:14;4.30;;;2.63;;
10269;SDS011;5180;50.832;5.390;2022-08-19T11:01:42;6.70;;;3.30;;
10269;SDS011;5180;50.832;5.390;2022-08-19T11:04:09;4.53;;;2.80;;
10269;SDS011;5180;50.832;5.390;2022-08-19T11:06:40;5.10;;;3.38;;
10269;SDS011;5180;50.832;5.390;2022-08-19T11:09:08;3.75;;;3.28;;
10269;SDS011;5180;50.832;5.390;2022-08-19T11:11:36;6.20;;;3.33;;
10269;SDS011;5180;50.832;5.390;2022-08-19T11:14:05;6.47;;;3.58;;
10269;SDS011;5180;50.832;5.390;2022-08-19T11:16:32;5.00;;;2.90;;
10269;SDS011;5180;50.832;5.390;2022-08-19T11:18:58;7.70;;;3.45;;
10269;SDS011;5180;50.832;5.390;2022-08-19T11:21:31;4.32;;;3.28;;
10269;SDS011;5180;50.832;5.390;2022-08-19T11:24:02;8.05;;;3.53;;
10269;SDS011;5180;50.832;5.390;2022-08-19T11:26:31;4.45;;;3.80;;
10269;SDS011;5180;50.832;5.390;2022-08-19T11:28:58;4.57;;;2.90;;
10269;SDS011;5180;50.832;5.390;2022-08-19T11:31:26;3.80;;;3.33;;
10269;SDS011;5180;50.832;5.390;2022-08-19T11:33:55;6.80;;;3.67;;
10269;SDS011;5180;50.832;5.390;2022-08-19T11:36:25;5.40;;;3.33;;
10269;SDS011;5180;50.832;5.390;2022-08-19T11:38:51;3.67;;;2.92;;
10269;SDS011;5180;50.832;5.390;2022-08-19T11:41:18;3.90;;;3.10;;
10269;SDS011;5180;50.832;5.390;2022-08-19T11:43:45;5.07;;;2.97;;
10269;SDS011;5180;50.832;5.390;2022-08-19T11:46:12;4.35;;;3.38;;
10269;SDS011;5180;50.832;5.390;2022-08-19T11:48:40;3.20;;;2.90;;
10269;SDS011;5180;50.832;5.390;2022-08-19T11:51:07;4.60;;;2.88;;
10269;SDS011;5180;50.832;5.390;2022-08-19T11:53:35;3.75;;;3.10;;
10269;SDS011;5180;50.832;5.390;2022-08-19T11:56:03;3.90;;;2.70;;
10269;SDS011;5180;50.832;5.390;2022-08-19T11:58:31;6.78;;;2.95;;
10269;SDS011;5180;50.832;5.390;2022-08-19T12:00:57;4.55;;;2.85;;
10269;SDS011;5180;50.832;5.390;2022-08-19T12:03:23;3.95;;;3.08;;
10269;SDS011;5180;50.832;5.390;2022-08-19T12:05:49;3.83;;;2.80;;
10269;SDS011;5180;50.832;5.390;2022-08-19T12:08:15;4.38;;;2.35;;
10269;SDS011;5180;50.832;5.390;2022-08-19T12:10:42;4.70;;;2.65;;
10269;SDS011;5180;50.832;5.390;2022-08-19T12:13:10;3.20;;;2.58;;
10269;SDS011;5180;50.832;5.390;2022-08-19T12:15:39;3.67;;;2.78;;
10269;SDS011;5180;50.832;5.390;2022-08-19T12:18:06;3.13;;;2.83;;
10269;SDS011;5180;50.832;5.390;2022-08-19T12:20:37;3.92;;;2.83;;
10269;SDS011;5180;50.832;5.390;2022-08-19T12:23:04;4.78;;;3.30;;
10269;SDS011;5180;50.832;5.390;2022-08-19T12:25:31;4.05;;;2.70;;
10269;SDS011;5180;50.832;5.390;2022-08-19T12:27:57;3.05;;;2.75;;
10269;SDS011;5180;50.832;5.390;2022-08-19T12:30:23;4.70;;;2.88;;
10269;SDS011;5180;50.832;5.390;2022-08-19T12:32:49;4.05;;;2.90;;
10269;SDS011;5180;50.832;5.390;2022-08-19T12:35:16;3.78;;;3.47;;
10269;SDS011;5180;50.832;5.390;2022-08-19T12:37:44;4.18;;;2.92;;
10269;SDS011;5180;50.832;5.390;2022-08-19T12:40:11;5.90;;;2.78;;
10269;SDS011;5180;50.832;5.390;2022-08-19T12:42:38;3.78;;;2.85;;
10269;SDS011;5180;50.832;5.390;2022-08-19T12:45:11;2.83;;;2.63;;
10269;SDS011;5180;50.832;5.390;2022-08-19T12:47:38;3.38;;;2.55;;
10269;SDS011;5180;50.832;5.390;2022-08-19T12:50:04;5.47;;;3.38;;
10269;SDS011;5180;50.832;5.390;2022-08-19T12:52:34;4.40;;;4.10;;
10269;SDS011;5180;50.832;5.390;2022-08-19T12:55:03;5.03;;;4.68;;
10269;SDS011;5180;50.832;5.390;2022-08-19T12:57:31;4.07;;;3.67;;
10269;SDS011;5180;50.832;5.390;2022-08-19T13:00:00;4.90;;;3.42;;
10269;SDS011;5180;50.832;5.390;2022-08-19T13:02:35;4.40;;;3.60;;
10269;SDS011;5180;50.832;5.390;2022-08-19T13:05:01;2.97;;;2.78;;
10269;SDS011;5180;50.832;5.390;2022-08-19T13:07:26;3.58;;;3.20;;
10269;SDS011;5180;50.832;5.390;2022-08-19T13:09:52;5.90;;;5.40;;
10269;SDS011;5180;50.832;5.390;2022-08-19T13:12:18;6.70;;;6.30;;
10269;SDS011;5180;50.832;5.390;2022-08-19T13:14:45;5.80;;;5.30;;
10269;SDS011;5180;50.832;5.390;2022-08-19T13:17:14;5.13;;;4.72;;
10269;SDS011;5180;50.832;5.390;2022-08-19T13:19:40;5.78;;;5.28;;
10269;SDS011;5180;50.832;5.390;2022-08-19T13:22:06;4.22;;;3.22;;
10269;SDS011;5180;50.832;5.390;2022-08-19T13:24:32;4.00;;;3.53;;
10269;SDS011;5180;50.832;5.390;2022-08-19T13:26:58;5.40;;;3.45;;
10269;SDS011;5180;50.832;5.390;2022-08-19T13:29:25;3.22;;;2.92;;
10269;SDS011;5180;50.832;5.390;2022-08-19T13:32:09;4.47;;;3.40;;
10269;SDS011;5180;50.832;5.390;2022-08-19T13:34:53;3.80;;;3.40;;
10269;SDS011;5180;50.832;5.390;2022-08-19T13:37:19;5.10;;;3.47;;
10269;SDS011;5180;50.832;5.390;2022-08-19T13:40:04;3.58;;;3.28;;
10269;SDS011;5180;50.832;5.390;2022-08-19T13:42:31;3.80;;;2.90;;
10269;SDS011;5180;50.832;5.390;2022-08-19T13:44:57;5.70;;;2.72;;
10269;SDS011;5180;50.832;5.390;2022-08-19T13:47:23;3.13;;;2.63;;
10269;SDS011;5180;50.832;5.390;2022-08-19T13:49:49;3.25;;;2.38;;
10269;SDS011;5180;50.832;5.390;2022-08-19T13:52:15;3.75;;;2.15;;
10269;SDS011;5180;50.832;5.390;2022-08-19T13:54:40;3.05;;;2.40;;
10269;SDS011;5180;50.832;5.390;2022-08-19T13:57:06;2.42;;;2.15;;
10269;SDS011;5180;50.832;5.390;2022-08-19T13:59:32;2.70;;;2.40;;
10269;SDS011;5180;50.832;5.390;2022-08-19T14:01:58;3.67;;;2.70;;
10269;SDS011;5180;50.832;5.390;2022-08-19T14:04:25;3.05;;;2.47;;
10269;SDS011;5180;50.832;5.390;2022-08-19T14:06:51;3.70;;;2.50;;
10269;SDS011;5180;50.832;5.390;2022-08-19T14:09:16;4.10;;;2.63;;
10269;SDS011;5180;50.832;5.390;2022-08-19T14:11:42;3.33;;;2.47;;
10269;SDS011;5180;50.832;5.390;2022-08-19T14:14:10;3.20;;;2.80;;
10269;SDS011;5180;50.832;5.390;2022-08-19T14:16:36;3.67;;;3.03;;
10269;SDS011;5180;50.832;5.390;2022-08-19T14:19:01;4.07;;;3.08;;
10269;SDS011;5180;50.832;5.390;2022-08-19T14:21:27;4.95;;;2.97;;
10269;SDS011;5180;50.832;5.390;2022-08-19T14:23:53;4.90;;;3.45;;
10269;SDS011;5180;50.832;5.390;2022-08-19T14:26:19;4.80;;;3.35;;
10269;SDS011;5180;50.832;5.390;2022-08-19T14:28:45;4.93;;;3.58;;
10269;SDS011;5180;50.832;5.390;2022-08-19T14:31:11;3.95;;;3.13;;
10269;SDS011;5180;50.832;5.390;2022-08-19T14:33:41;3.72;;;3.05;;
10269;SDS011;5180;50.832;5.390;2022-08-19T14:36:07;4.93;;;3.58;;
10269;SDS011;5180;50.832;5.390;2022-08-19T14:38:33;4.00;;;3.63;;
10269;SDS011;5180;50.832;5.390;2022-08-19T14:43:47;3.60;;;3.10;;
10269;SDS011;5180;50.832;5.390;2022-08-19T14:46:16;3.83;;;3.50;;
10269;SDS011;5180;50.832;5.390;2022-08-19T14:48:44;3.90;;;3.47;;
10269;SDS011;5180;50.832;5.390;2022-08-19T14:51:10;3.00;;;2.50;;
10269;SDS011;5180;50.832;5.390;2022-08-19T14:53:36;3.38;;;2.70;;
10269;SDS011;5180;50.832;5.390;2022-08-19T14:56:06;3.10;;;2.75;;
10269;SDS011;5180;50.832;5.390;2022-08-19T14:58:37;3.88;;;2.50;;
10269;SDS011;5180;50.832;5.390;2022-08-19T15:01:05;3.58;;;2.80;;
10269;SDS011;5180;50.832;5.390;2022-08-19T15:03:31;3.22;;;2.92;;
10269;SDS011;5180;50.832;5.390;2022-08-19T15:05:57;2.72;;;2.53;;
10269;SDS011;5180;50.832;5.390;2022-08-19T15:08:24;2.90;;;2.67;;
10269;SDS011;5180;50.832;5.390;2022-08-19T15:10:51;3.20;;;2.90;;